Time;durP1;ratioP1;P1;durP2;ratioP2;P2;SDS_P1;SDS_P2;PMS_P1;PMS_P2;Temp;Humidity;BMP_temperature;BMP_pressure;BME280_temperature;BME280_humidity;BME280_pressure;Samples;Min_cycle;Max_cycle;Signal;HPM_P1;HPM_P2
2022/02/16 00:00:55;;;;;;;5.53;3.15;;;5.80;91.70;;;5.85;65.26;100162.34;4974672;28;20242;-72
2022/02/16 00:03:25;;;;;;;3.97;3.47;;;5.80;91.40;;;5.86;64.84;100155.94;4974763;28;20716;-71
2022/02/16 00:05:53;;;;;;;4.85;3.05;;;5.80;90.40;;;5.90;65.13;100154.59;4974633;28;20263;-70
2022/02/16 00:08:22;;;;;;;4.85;3.25;;;5.80;90.00;;;5.94;64.32;100153.19;4974293;28;20215;-72
2022/02/16 00:10:52;;;;;;;4.38;3.30;;;5.90;84.90;;;5.98;64.83;100151.78;4974430;28;20186;-71
2022/02/16 00:13:20;;;;;;;4.43;3.10;;;5.90;88.10;;;5.96;64.15;100148.44;4975129;28;20203;-71
2022/02/16 00:15:54;;;;;;;3.70;3.30;;;5.90;82.10;;;5.99;64.12;100145.38;4974832;28;20183;-71
2022/02/16 00:18:22;;;;;;;5.40;4.15;;;5.90;79.50;;;6.03;63.71;100150.19;4974343;28;20215;-72
2022/02/16 00:20:53;;;;;;;5.90;3.55;;;6.00;78.40;;;6.15;63.64;100153.19;4974124;28;20250;-72
2022/02/16 00:23:22;;;;;;;5.57;3.33;;;6.10;76.00;;;6.13;63.56;100140.97;4976175;28;20172;-73
2022/02/16 00:25:52;;;;;;;3.92;3.10;;;6.00;75.20;;;6.17;63.04;100143.09;4975420;28;20199;-71
2022/02/16 00:28:20;;;;;;;4.05;3.30;;;6.10;71.20;;;6.07;63.28;100135.34;4974965;28;20179;-72
2022/02/16 00:30:49;;;;;;;5.95;2.50;;;6.00;69.40;;;6.18;63.09;100127.81;4973161;28;20194;-72
2022/02/16 00:33:17;;;;;;;3.25;2.90;;;6.10;71.40;;;6.28;63.54;100128.31;4973057;28;20306;-72
2022/02/16 00:35:45;;;;;;;7.57;4.95;;;6.10;72.00;;;6.29;64.15;100132.66;4971671;28;20258;-70
2022/02/16 00:38:14;;;;;;;8.43;4.20;;;6.20;77.00;;;6.16;64.74;100127.16;4971646;28;20298;-71
2022/02/16 00:40:43;;;;;;;4.80;2.65;;;6.10;82.40;;;6.09;65.45;100135.16;4973068;28;20195;-72
2022/02/16 00:43:12;;;;;;;7.22;2.92;;;6.10;91.20;;;6.13;66.01;100131.06;4973190;28;20180;-72
2022/02/16 00:45:41;;;;;;;4.40;2.28;;;6.10;93.20;;;6.13;65.87;100119.47;4972871;28;20647;-71
2022/02/16 00:48:09;;;;;;;7.50;3.80;;;6.00;94.00;;;6.06;66.24;100122.09;4971795;28;20188;-69
2022/02/16 00:50:39;;;;;;;6.32;2.50;;;6.00;94.70;;;6.05;66.28;100121.25;4973587;28;20167;-71
2022/02/16 00:53:08;;;;;;;4.75;3.20;;;6.00;95.30;;;5.92;67.35;100123.00;4973920;28;20199;-71
2022/02/16 00:55:36;;;;;;;3.83;2.60;;;5.90;98.70;;;5.99;67.40;100114.00;4972307;28;20202;-71
2022/02/16 00:58:12;;;;;;;5.53;3.58;;;5.90;99.60;;;5.90;67.56;100108.94;4972117;28;20497;-71
2022/02/16 01:00:41;;;;;;;4.43;2.70;;;5.90;99.90;;;5.89;68.84;100115.31;4973295;28;20190;-71
2022/02/16 01:03:10;;;;;;;5.10;2.65;;;5.80;99.90;;;5.82;68.82;100112.53;4971933;28;20274;-71
2022/02/16 01:05:39;;;;;;;4.03;3.47;;;5.80;99.90;;;5.72;69.21;100097.75;4972183;28;20581;-71
2022/02/16 01:08:09;;;;;;;4.95;3.75;;;5.70;99.90;;;5.85;69.37;100092.53;4973098;28;20192;-72
2022/02/16 01:10:40;;;;;;;5.75;3.63;;;5.70;99.90;;;5.78;68.96;100091.63;4972590;28;20214;-70
2022/02/16 01:13:12;;;;;;;4.75;4.25;;;5.70;99.90;;;5.73;69.80;100086.00;4971367;28;20208;-71
2022/02/16 01:15:41;;;;;;;9.07;4.35;;;5.70;99.90;;;5.81;70.49;100091.25;4971314;28;20195;-72
2022/02/16 01:18:09;;;;;;;7.95;4.40;;;5.70;99.90;;;5.77;70.49;100089.94;4972637;28;20570;-71
2022/02/16 01:20:43;;;;;;;4.50;4.10;;;5.70;99.90;;;5.72;69.98;100087.00;4972629;28;20185;-72
2022/02/16 01:23:13;;;;;;;6.90;3.67;;;5.70;99.90;;;5.73;70.69;100083.31;4989079;28;20566;-71
2022/02/16 01:25:50;;;;;;;5.47;3.53;;;5.70;99.90;;;5.72;71.23;100093.22;4973672;28;20172;-71
2022/02/16 01:28:37;;;;;;;7.18;4.25;;;5.70;99.90;;;5.55;72.04;100081.91;4971881;28;20230;-71
2022/02/16 01:31:06;;;;;;;3.45;2.90;;;5.50;99.90;;;5.56;72.01;100070.16;4971811;28;20673;-71
2022/02/16 01:33:40;;;;;;;4.47;4.00;;;5.50;99.90;;;5.46;72.82;100077.66;5000388;23;20606;-70
2022/02/16 01:36:09;;;;;;;6.90;3.38;;;5.40;99.90;;;5.54;72.65;100061.44;4980602;28;20746;-68
2022/02/16 01:38:37;;;;;;;7.28;3.72;;;5.50;99.90;;;5.51;73.18;100063.69;4971091;28;20196;-69
2022/02/16 01:41:15;;;;;;;7.95;3.90;;;5.50;99.90;;;5.43;73.77;100063.78;4971945;28;20685;-68
2022/02/16 01:43:51;;;;;;;4.80;3.13;;;5.40;99.90;;;5.50;74.06;100056.66;4975458;28;20233;-70
2022/02/16 01:46:22;;;;;;;5.45;4.40;;;5.40;99.90;;;5.45;73.70;100054.53;5006004;23;20579;-72
2022/02/16 01:48:55;;;;;;;8.95;4.55;;;5.40;99.90;;;5.33;74.32;100050.66;5000834;28;20197;-72
2022/02/16 01:51:28;;;;;;;6.43;3.90;;;5.30;99.90;;;5.30;74.45;100051.03;5000250;28;20222;-72
2022/02/16 01:53:56;;;;;;;7.32;4.25;;;5.30;99.90;;;5.35;74.78;100037.91;5000731;28;20206;-73
2022/02/16 01:56:26;;;;;;;4.55;3.72;;;5.30;99.90;;;5.35;74.98;100021.81;5001199;28;20213;-72
2022/02/16 01:58:57;;;;;;;5.55;2.97;;;5.30;99.90;;;5.36;75.07;100026.16;5000195;28;20730;-73
2022/02/16 02:01:45;;;;;;;5.35;3.50;;;5.30;99.90;;;5.45;74.85;100016.13;5000778;28;20221;-72
2022/02/16 02:04:14;;;;;;;4.80;4.10;;;5.40;99.90;;;5.40;75.11;100022.06;5000534;28;20230;-71
2022/02/16 02:06:44;;;;;;;5.32;4.35;;;5.30;99.90;;;5.41;74.54;100015.69;5000931;28;20752;-70
2022/02/16 02:09:14;;;;;;;7.40;4.30;;;5.40;99.90;;;5.42;74.87;100011.97;5000990;28;20195;-72
2022/02/16 02:11:44;;;;;;;6.88;4.90;;;5.40;99.90;;;5.52;75.24;100014.31;5001048;28;20179;-72
2022/02/16 02:14:15;;;;;;;5.55;3.88;;;5.40;99.90;;;5.49;74.71;100002.13;4999052;28;20228;-71
2022/02/16 02:17:04;;;;;;;5.57;4.20;;;5.40;99.90;;;5.38;75.15;99989.22;4999188;28;20253;-73
2022/02/16 02:19:35;;;;;;;7.00;3.85;;;5.40;99.90;;;5.40;75.24;99989.88;4999231;28;20187;-71
2022/02/16 02:22:05;;;;;;;9.40;4.75;;;5.40;99.90;;;5.38;75.88;99988.38;5000168;28;20233;-70
2022/02/16 02:24:33;;;;;;;5.88;5.25;;;5.30;99.90;;;5.42;76.19;99987.81;4999462;28;20562;-72
2022/02/16 02:27:01;;;;;;;5.57;4.22;;;5.30;99.90;;;5.34;76.32;99982.56;5000083;28;20187;-71
2022/02/16 02:29:31;;;;;;;5.53;4.72;;;5.30;99.90;;;5.35;76.07;99978.88;5000554;28;20998;-71
2022/02/16 02:32:04;;;;;;;5.53;4.40;;;5.30;99.90;;;5.32;76.13;99981.13;4999969;28;20194;-71
2022/02/16 02:34:32;;;;;;;6.63;4.80;;;5.30;99.90;;;5.37;75.34;99971.50;4999367;28;20233;-71
2022/02/16 02:37:01;;;;;;;7.13;4.55;;;5.30;99.90;;;5.38;75.73;99970.44;4998914;28;20190;-71
2022/02/16 02:39:32;;;;;;;6.65;4.53;;;5.40;99.90;;;5.32;76.05;99962.34;4999068;28;20218;-71
2022/02/16 02:42:01;;;;;;;4.97;4.57;;;5.30;99.90;;;5.26;75.74;99955.88;4998930;28;20321;-72
2022/02/16 02:44:29;;;;;;;7.93;4.82;;;5.20;99.90;;;5.25;76.06;99960.41;5000270;28;20186;-71
2022/02/16 02:46:58;;;;;;;8.25;4.07;;;5.20;99.90;;;5.36;76.01;99953.72;4999290;28;20248;-72
2022/02/16 02:49:31;;;;;;;8.23;4.70;;;5.30;99.90;;;5.33;75.80;99940.66;4998661;28;20219;-71
2022/02/16 02:52:00;;;;;;;5.25;4.20;;;5.20;99.90;;;5.39;75.51;99937.22;5000078;28;20205;-71
2022/02/16 02:54:33;;;;;;;5.18;4.15;;;5.30;99.90;;;5.35;76.04;99927.91;4998640;28;20222;-72
2022/02/16 02:57:01;;;;;;;14.75;4.93;;;5.30;99.90;;;5.38;76.02;99922.16;4998696;28;20238;-72
2022/02/16 02:59:30;;;;;;;7.95;4.40;;;5.30;99.90;;;5.38;75.45;99927.50;4998972;28;20640;-72
2022/02/16 03:01:59;;;;;;;4.75;4.22;;;5.30;99.90;;;5.38;75.51;99916.78;4998301;28;20195;-71
2022/02/16 03:04:29;;;;;;;8.88;4.30;;;5.30;99.90;;;5.47;74.92;99923.69;4998313;28;20702;-72
2022/02/16 03:06:57;;;;;;;5.20;4.65;;;5.40;99.90;;;5.49;75.54;99927.00;4998469;28;20309;-73
2022/02/16 03:09:26;;;;;;;8.85;4.70;;;5.40;99.90;;;5.40;75.42;99922.81;4998169;28;20262;-72
2022/02/16 03:11:56;;;;;;;5.35;4.28;;;5.40;99.90;;;5.45;75.44;99909.63;4997891;28;20193;-72
2022/02/16 03:14:24;;;;;;;6.50;4.47;;;5.40;99.90;;;5.51;75.26;99908.03;4997833;28;20718;-72
2022/02/16 03:16:53;;;;;;;5.60;3.85;;;5.40;99.90;;;5.49;75.14;99897.50;4998772;28;20273;-72
2022/02/16 03:19:22;;;;;;;5.90;3.55;;;5.40;99.90;;;5.56;74.49;99895.72;5014749;28;20190;-72
2022/02/16 03:21:51;;;;;;;7.78;4.05;;;5.40;99.90;;;5.48;74.45;99893.13;4997477;28;20197;-72
2022/02/16 03:24:22;;;;;;;8.00;4.40;;;5.40;99.90;;;5.50;74.75;99885.75;4997626;28;20242;-72
2022/02/16 03:26:51;;;;;;;8.88;5.40;;;5.40;99.90;;;5.52;74.53;99888.22;4996931;28;20584;-72
2022/02/16 03:29:30;;;;;;;4.28;3.75;;;5.40;99.90;;;5.45;74.65;99881.97;4997645;28;20566;-71
2022/02/16 03:31:59;;;;;;;7.88;3.92;;;5.40;99.90;;;5.49;75.01;99869.81;4998111;28;20225;-72
2022/02/16 03:34:27;;;;;;;4.90;4.50;;;5.40;99.90;;;5.47;75.06;99870.00;5000402;28;20214;-72
2022/02/16 03:36:56;;;;;;;5.90;3.67;;;5.40;99.90;;;5.58;74.86;99874.84;5001684;28;20305;-71
2022/02/16 03:39:24;;;;;;;6.60;4.70;;;5.50;99.90;;;5.56;74.29;99866.19;5001173;28;20205;-71
2022/02/16 03:41:53;;;;;;;3.90;3.60;;;5.50;99.90;;;5.61;74.28;99870.97;5002537;28;20289;-71
2022/02/16 03:44:23;;;;;;;7.57;5.03;;;5.60;99.90;;;5.63;73.97;99869.75;5003560;28;20191;-72
2022/02/16 03:46:56;;;;;;;3.95;3.55;;;5.60;99.90;;;5.66;73.62;99874.69;5002743;28;20250;-71
2022/02/16 03:49:25;;;;;;;4.10;3.35;;;5.60;99.90;;;5.68;74.03;99867.28;5003589;28;20198;-72
2022/02/16 03:51:57;;;;;;;6.10;4.18;;;5.60;99.90;;;5.73;73.80;99871.25;5003929;28;20187;-72
2022/02/16 03:54:25;;;;;;;5.57;4.63;;;5.60;99.90;;;5.79;73.94;99870.47;5005688;28;20214;-70
2022/02/16 03:56:53;;;;;;;6.15;4.15;;;5.70;99.90;;;5.77;73.33;99864.44;5006689;28;20758;-70
2022/02/16 03:59:22;;;;;;;8.75;4.60;;;5.70;99.90;;;5.77;73.89;99867.13;5002956;28;20187;-71
2022/02/16 04:02:11;;;;;;;6.10;4.13;;;5.70;99.90;;;5.89;73.30;99863.75;5005538;28;20227;-73
2022/02/16 04:04:40;;;;;;;10.13;4.20;;;5.80;99.90;;;5.91;73.37;99852.81;5003310;28;20755;-71
2022/02/16 04:07:09;;;;;;;4.57;3.28;;;5.80;99.90;;;5.87;73.31;99849.69;5017819;28;20252;-72
2022/02/16 04:09:38;;;;;;;8.25;3.75;;;5.80;99.90;;;5.82;73.49;99856.66;4997429;28;20208;-73
2022/02/16 04:12:08;;;;;;;7.53;4.25;;;5.80;99.90;;;5.84;73.14;99847.38;4998937;28;20183;-72
2022/02/16 04:14:37;;;;;;;4.68;3.70;;;5.80;99.90;;;5.83;73.29;99852.94;4995928;28;20218;-73
2022/02/16 04:17:05;;;;;;;5.03;3.50;;;5.80;99.90;;;5.82;73.17;99844.06;4999237;28;20202;-71
2022/02/16 04:19:35;;;;;;;6.82;3.35;;;5.80;99.90;;;5.84;73.78;99844.69;5002472;28;20277;-73
2022/02/16 04:22:04;;;;;;;6.32;4.50;;;5.80;99.90;;;5.86;73.41;99839.09;5003173;28;20191;-73
2022/02/16 04:24:33;;;;;;;3.95;3.65;;;5.70;99.90;;;5.95;73.28;99843.34;5005218;28;20225;-72
2022/02/16 04:27:01;;;;;;;5.00;3.70;;;5.80;99.90;;;5.87;73.09;99841.63;5015345;28;20191;-71
2022/02/16 04:29:29;;;;;;;6.78;4.03;;;5.80;99.90;;;5.90;73.04;99832.38;4995740;28;20763;-72
2022/02/16 04:31:58;;;;;;;4.10;3.60;;;5.80;99.90;;;5.95;73.07;99840.66;4997414;28;20182;-71
2022/02/16 04:34:26;;;;;;;5.22;3.97;;;5.90;99.90;;;5.95;72.97;99827.25;4996479;28;20198;-72
2022/02/16 04:36:56;;;;;;;3.47;2.90;;;5.90;99.90;;;5.94;73.17;99839.00;4996250;28;20257;-73
2022/02/16 04:39:25;;;;;;;5.15;4.65;;;5.80;99.90;;;6.01;72.94;99839.84;4995201;28;20229;-72
2022/02/16 04:41:54;;;;;;;7.38;5.00;;;5.90;99.90;;;6.04;72.50;99840.31;4996461;28;20545;-72
2022/02/16 04:44:23;;;;;;;4.97;4.32;;;6.00;99.90;;;6.05;73.03;99833.09;4995007;28;20338;-72
2022/02/16 04:47:07;;;;;;;6.50;4.47;;;6.00;99.90;;;6.07;72.99;99839.91;4994513;28;20206;-71
2022/02/16 04:49:36;;;;;;;7.13;4.53;;;6.00;99.90;;;5.99;73.00;99825.81;4995108;28;20368;-73
2022/02/16 04:52:07;;;;;;;6.13;4.15;;;5.90;99.90;;;6.09;72.50;99831.66;4994819;28;20198;-72
2022/02/16 04:54:37;;;;;;;5.82;4.28;;;6.00;99.90;;;6.08;72.59;99824.63;4994155;28;20218;-71
2022/02/16 04:57:06;;;;;;;5.63;3.70;;;6.00;99.90;;;6.04;73.06;99818.00;4997123;28;20187;-72
2022/02/16 04:59:50;;;;;;;5.45;3.38;;;6.00;99.90;;;6.14;73.09;99821.16;4995357;28;20218;-71
2022/02/16 05:02:19;;;;;;;6.60;4.30;;;6.00;99.90;;;6.13;72.74;99816.78;4995127;28;20257;-72
2022/02/16 05:04:48;;;;;;;7.28;4.00;;;6.00;99.90;;;6.14;72.95;99813.09;4994329;28;20191;-71
2022/02/16 05:07:18;;;;;;;5.70;4.30;;;6.00;99.90;;;6.15;72.64;99809.34;4994385;28;20202;-71
2022/02/16 05:09:46;;;;;;;4.05;3.75;;;6.00;99.90;;;6.19;72.84;99815.16;4994471;28;20635;-72
2022/02/16 05:12:16;;;;;;;6.85;3.75;;;6.10;99.90;;;6.24;72.27;99797.44;4995631;28;20213;-73
2022/02/16 05:14:45;;;;;;;5.30;4.32;;;6.20;99.90;;;6.31;71.89;99798.28;4996153;28;20242;-72
2022/02/16 05:17:14;;;;;;;7.18;4.00;;;6.20;99.90;;;6.24;72.14;99805.50;4999668;28;20547;-73
2022/02/16 05:19:45;;;;;;;4.55;3.80;;;6.20;99.90;;;6.26;71.91;99795.34;4999340;28;20206;-71
2022/02/16 05:22:13;;;;;;;4.88;2.85;;;6.20;99.90;;;6.21;72.38;99799.66;4999955;28;20194;-72
2022/02/16 05:24:48;;;;;;;5.80;4.05;;;6.10;99.90;;;6.31;72.35;99800.94;4999125;28;20281;-72
2022/02/16 05:27:17;;;;;;;6.35;4.50;;;6.20;99.90;;;6.36;72.43;99801.19;4999023;28;20290;-71
2022/02/16 05:29:46;;;;;;;8.68;4.22;;;6.20;99.90;;;6.33;72.55;99796.22;4998591;28;20552;-71
2022/02/16 05:32:15;;;;;;;8.48;4.15;;;6.30;99.90;;;6.37;72.78;99794.78;4998923;28;20193;-70
2022/02/16 05:34:43;;;;;;;5.97;4.38;;;6.30;99.90;;;6.38;72.63;99796.44;4998725;28;20218;-71
2022/02/16 05:37:12;;;;;;;5.20;4.13;;;6.30;99.90;;;6.41;72.95;99801.41;4999480;28;20206;-71
2022/02/16 05:39:40;;;;;;;4.15;3.75;;;6.40;99.90;;;6.38;73.20;99796.44;4999938;28;20237;-71
2022/02/16 05:42:10;;;;;;;5.07;4.20;;;6.30;99.90;;;6.36;73.01;99779.69;5000077;28;20182;-72
2022/02/16 05:44:45;;;;;;;4.55;4.05;;;6.30;99.90;;;6.38;72.88;99784.88;4999992;28;20186;-71
2022/02/16 05:47:13;;;;;;;4.90;4.25;;;6.30;99.90;;;6.41;72.66;99787.97;5000171;28;20206;-72
2022/02/16 05:49:42;;;;;;;5.68;4.28;;;6.30;99.90;;;6.42;73.37;99778.06;5002876;28;20585;-73
2022/02/16 05:52:12;;;;;;;7.60;3.55;;;6.30;99.90;;;6.36;73.08;99778.84;5003255;28;20203;-73
2022/02/16 05:54:42;;;;;;;6.40;4.65;;;6.30;99.90;;;6.43;73.20;99779.72;5003865;28;20199;-71
2022/02/16 05:57:12;;;;;;;6.10;4.50;;;6.40;99.90;;;6.43;73.38;99777.03;5003512;28;20195;-72
2022/02/16 05:59:40;;;;;;;4.93;4.50;;;6.30;99.90;;;6.33;73.89;99766.66;5002774;28;20202;-73
2022/02/16 06:02:09;;;;;;;5.85;3.90;;;6.30;99.90;;;6.41;74.05;99771.84;5002605;28;20253;-72
2022/02/16 06:04:41;;;;;;;6.82;4.15;;;6.30;99.90;;;6.31;73.94;99767.88;5001482;28;20194;-74
2022/02/16 06:07:10;;;;;;;4.20;3.80;;;6.30;99.90;;;6.30;73.91;99767.03;5002191;28;20198;-72
2022/02/16 06:09:38;;;;;;;4.65;3.95;;;6.30;99.90;;;6.24;74.39;99753.63;5001823;28;20190;-73
2022/02/16 06:12:08;;;;;;;5.70;5.05;;;6.20;99.90;;;6.32;74.39;99761.47;5003371;28;20199;-73
2022/02/16 06:14:38;;;;;;;9.52;4.80;;;6.20;99.90;;;6.32;75.01;99751.56;5002197;28;20187;-71
2022/02/16 06:17:12;;;;;;;4.20;3.80;;;6.30;99.90;;;6.22;75.40;99751.13;5001501;28;20286;-71
2022/02/16 06:19:41;;;;;;;6.50;4.80;;;6.20;99.90;;;6.23;75.91;99742.03;4998292;28;20198;-72
2022/02/16 06:22:10;;;;;;;4.40;3.75;;;6.20;99.90;;;6.17;75.26;99737.47;4998682;28;20186;-72
2022/02/16 06:24:40;;;;;;;4.22;3.35;;;6.10;99.90;;;6.19;75.89;99740.78;4999346;28;20595;-71
2022/02/16 06:27:10;;;;;;;7.05;4.88;;;6.10;99.90;;;6.25;75.56;99733.75;4997717;28;20597;-72
2022/02/16 06:29:40;;;;;;;4.90;4.43;;;6.20;99.90;;;6.30;76.02;99726.75;5003671;28;20195;-72
2022/02/16 06:32:29;;;;;;;4.43;3.88;;;6.20;99.90;;;6.33;75.46;99737.09;5005300;28;20202;-72
2022/02/16 06:34:59;;;;;;;4.72;3.47;;;6.30;99.90;;;6.05;75.93;99728.34;5003033;28;20221;-73
2022/02/16 06:37:28;;;;;;;5.85;4.88;;;6.10;99.90;;;6.15;76.25;99723.41;5002019;28;20270;-72
2022/02/16 06:39:58;;;;;;;4.57;4.03;;;6.10;99.90;;;6.22;75.69;99718.88;5001147;28;20187;-72
2022/02/16 06:42:27;;;;;;;7.28;5.32;;;6.10;99.90;;;6.17;76.17;99721.34;4998979;28;20209;-73
2022/02/16 06:44:58;;;;;;;11.00;6.07;;;6.10;99.90;;;6.31;76.34;99717.66;4999616;28;20229;-72
2022/02/16 06:47:37;;;;;;;4.50;4.07;;;6.20;99.90;;;6.24;75.98;99721.38;4997309;28;20620;-72
2022/02/16 06:50:08;;;;;;;5.97;5.38;;;6.20;99.90;;;6.17;76.20;99726.72;4999717;28;20282;-74
2022/02/16 06:52:38;;;;;;;8.25;5.13;;;6.10;99.90;;;6.25;76.71;99710.41;4998452;28;20195;-72
2022/02/16 06:55:09;;;;;;;6.15;4.47;;;6.20;99.90;;;6.22;76.48;99707.31;4996120;28;20249;-72
2022/02/16 06:57:39;;;;;;;5.95;4.63;;;6.20;99.90;;;6.13;76.41;99712.03;4994359;28;20218;-72
2022/02/16 07:00:13;;;;;;;6.97;4.13;;;6.10;99.90;;;6.06;76.70;99689.69;4997185;28;20258;-72
2022/02/16 07:02:46;;;;;;;5.30;4.43;;;6.00;99.90;;;6.01;77.20;99678.72;4998342;28;20241;-72
2022/02/16 07:05:33;;;;;;;4.85;4.35;;;5.90;99.90;;;6.03;76.97;99682.06;4999265;28;20693;-71
2022/02/16 07:08:07;;;;;;;7.65;5.10;;;6.00;99.90;;;6.17;76.83;99683.75;4997885;28;20220;-72
2022/02/16 07:10:36;;;;;;;6.32;4.20;;;6.00;99.90;;;6.03;76.86;99668.63;4998325;28;20691;-73
2022/02/16 07:13:06;;;;;;;7.68;4.70;;;6.00;99.90;;;6.03;77.42;99660.56;4997623;28;20843;-71
2022/02/16 07:15:37;;;;;;;8.23;4.38;;;5.90;99.90;;;6.14;76.91;99648.41;4996367;28;20536;-72
2022/02/16 07:18:05;;;;;;;5.15;4.03;;;6.00;99.90;;;6.14;76.37;99643.88;5006781;28;20261;-72
2022/02/16 07:20:43;;;;;;;6.20;4.90;;;6.10;99.90;;;6.04;77.09;99657.69;4993133;28;20289;-72
2022/02/16 07:23:14;;;;;;;5.85;4.90;;;6.00;99.90;;;6.08;76.72;99647.38;4977411;28;20203;-72
2022/02/16 07:25:43;;;;;;;8.35;4.03;;;6.00;99.90;;;6.11;76.47;99636.19;4992046;28;20298;-73
2022/02/16 07:28:19;;;;;;;4.75;4.25;;;6.00;99.90;;;6.06;76.85;99644.03;5011228;28;20193;-72
2022/02/16 07:30:49;;;;;;;5.90;3.88;;;6.00;99.90;;;6.15;76.70;99637.44;4997162;28;20187;-73
2022/02/16 07:33:19;;;;;;;4.63;4.07;;;6.00;99.90;;;6.25;76.88;99645.09;4998340;28;20183;-71
2022/02/16 07:35:50;;;;;;;3.83;2.90;;;6.10;99.90;;;6.18;76.77;99637.06;5012779;28;20676;-72
2022/02/16 07:38:18;;;;;;;4.18;3.83;;;6.10;99.90;;;6.27;76.69;99635.00;4997578;28;20627;-72
2022/02/16 07:40:48;;;;;;;5.68;4.30;;;6.10;99.90;;;6.34;76.65;99625.91;4998810;28;20194;-71
2022/02/16 07:43:20;;;;;;;4.55;3.80;;;6.20;99.90;;;6.31;76.50;99637.06;4996785;28;20671;-74
2022/02/16 07:45:59;;;;;;;8.50;5.85;;;6.20;99.90;;;6.22;76.26;99637.47;5018801;23;20767;-70
2022/02/16 07:48:33;;;;;;;4.65;4.03;;;6.20;99.90;;;6.34;76.45;99627.78;4981417;28;20223;-69
2022/02/16 07:51:11;;;;;;;4.40;3.13;;;6.20;99.90;;;6.44;76.15;99637.06;4991461;28;20198;-70
2022/02/16 07:54:12;;;;;;;3.95;3.55;;;6.30;99.90;;;6.44;76.03;99620.94;5009106;28;20210;-69
2022/02/16 07:56:45;;;;;;;2.50;2.30;;;6.30;99.90;;;6.49;75.48;99618.47;5007920;28;20214;-70
2022/02/16 07:59:17;;;;;;;5.40;4.00;;;6.40;99.90;;;6.53;76.01;99625.06;4989604;28;20616;-70
2022/02/16 08:01:47;;;;;;;3.95;2.55;;;6.40;99.90;;;6.42;75.86;99612.28;4991564;28;20223;-69
2022/02/16 08:04:19;;;;;;;4.20;2.92;;;6.30;99.90;;;6.44;75.88;99596.75;4991156;28;20687;-69
2022/02/16 08:06:52;;;;;;;4.47;2.88;;;6.30;99.90;;;6.38;75.93;99600.28;4975971;28;20225;-69
2022/02/16 08:09:21;;;;;;;6.03;2.03;;;6.30;99.90;;;6.42;75.91;99593.47;4993752;28;20775;-70
2022/02/16 08:11:51;;;;;;;7.05;3.10;;;6.30;99.90;;;6.52;75.73;99587.69;4986845;28;20333;-72
2022/02/16 08:14:20;;;;;;;3.70;3.33;;;6.40;99.90;;;6.48;75.70;99579.22;4987981;28;20290;-69
2022/02/16 08:16:58;;;;;;;4.30;3.10;;;6.40;99.90;;;6.49;76.12;99575.47;4988089;28;20219;-69
2022/02/16 08:19:28;;;;;;;3.88;2.65;;;6.40;99.90;;;6.42;76.34;99555.84;4973768;28;20670;-70
2022/02/16 08:21:57;;;;;;;5.30;4.20;;;6.30;99.90;;;6.43;76.61;99544.06;4972208;28;20290;-69
2022/02/16 08:24:28;;;;;;;3.50;3.03;;;6.30;99.90;;;6.58;75.73;99540.34;4988260;28;20210;-71
2022/02/16 08:27:01;;;;;;;4.22;2.75;;;6.40;99.90;;;6.65;75.71;99525.00;4999199;28;20301;-70
2022/02/16 08:29:34;;;;;;;4.80;2.95;;;6.50;99.90;;;6.80;75.45;99520.22;4991193;28;20202;-70
2022/02/16 08:32:10;;;;;;;5.47;2.20;;;6.50;99.90;;;6.97;74.62;99513.34;4991126;28;20189;-69
2022/02/16 08:35:08;;;;;;;4.25;3.70;;;6.80;99.90;;;6.93;74.80;99504.03;4991115;28;20205;-68
2022/02/16 08:37:41;;;;;;;4.15;2.80;;;6.70;99.90;;;6.96;74.54;99512.53;4990794;28;20616;-70
2022/02/16 08:40:12;;;;;;;2.42;2.10;;;6.70;99.90;;;6.81;74.52;99495.00;4992104;28;20180;-69
2022/02/16 08:42:41;;;;;;;4.95;2.10;;;6.70;99.90;;;6.91;74.49;99495.38;4992810;28;20195;-70
2022/02/16 08:45:11;;;;;;;3.92;2.20;;;6.70;99.90;;;6.99;74.55;99489.75;4992766;28;20194;-70
2022/02/16 08:47:41;;;;;;;3.05;2.15;;;6.80;99.90;;;6.93;73.94;99487.91;4992263;28;20265;-70
2022/02/16 08:50:11;;;;;;;1.60;1.50;;;6.80;99.90;;;6.81;73.99;99487.75;4991594;28;20171;-70
2022/02/16 08:52:40;;;;;;;5.70;1.90;;;6.70;99.90;;;6.81;73.92;99470.78;4992150;28;20182;-70
2022/02/16 08:55:10;;;;;;;2.42;2.00;;;6.70;99.90;;;6.80;74.43;99466.44;4992842;28;20242;-69
2022/02/16 08:57:40;;;;;;;3.30;2.08;;;6.60;99.90;;;6.97;73.68;99451.50;4993520;28;20206;-68
2022/02/16 09:00:11;;;;;;;3.13;2.00;;;6.80;99.90;;;6.80;74.22;99467.28;4992413;28;20269;-69
2022/02/16 09:02:41;;;;;;;2.22;1.73;;;6.70;99.90;;;6.86;73.42;99463.75;4990873;28;20198;-70
2022/02/16 09:05:10;;;;;;;5.57;2.33;;;6.70;99.90;;;6.93;73.70;99469.06;4991902;28;20577;-67
2022/02/16 09:07:38;;;;;;;2.30;1.75;;;6.80;99.90;;;6.94;73.97;99455.44;4992003;28;20699;-69
2022/02/16 09:10:10;;;;;;;4.78;1.50;;;6.80;99.90;;;6.86;74.15;99454.84;4992017;28;20211;-69
2022/02/16 09:12:40;;;;;;;2.67;2.08;;;6.70;99.90;;;6.73;74.15;99453.03;4992268;28;20210;-70
2022/02/16 09:15:10;;;;;;;2.17;1.67;;;6.70;99.90;;;6.85;74.46;99445.13;4991905;28;20197;-69
2022/02/16 09:17:39;;;;;;;2.20;2.00;;;6.80;99.90;;;6.89;74.15;99438.28;4991812;28;20212;-70
2022/02/16 09:20:09;;;;;;;1.55;1.45;;;6.70;99.90;;;6.94;74.01;99438.47;4992139;28;20181;-70
2022/02/16 09:22:38;;;;;;;2.25;1.77;;;6.70;99.90;;;7.22;74.51;99412.03;4992354;28;20195;-69
2022/02/16 09:25:08;;;;;;;2.80;1.25;;;6.90;99.90;;;7.57;73.92;99419.66;4990605;28;20233;-70
2022/02/16 09:27:36;;;;;;;3.47;1.95;;;7.30;99.90;;;8.12;70.96;99420.66;4992355;28;20217;-69
2022/02/16 09:30:07;;;;;;;2.60;1.38;;;7.90;99.90;;;7.83;71.45;99397.94;4993285;28;20187;-69
2022/02/16 09:32:36;;;;;;;1.30;1.15;;;7.70;99.90;;;8.20;71.19;99391.56;4992418;28;20188;-69
2022/02/16 09:35:08;;;;;;;1.70;1.30;;;7.90;99.90;;;8.27;69.50;99391.50;4992938;28;20179;-69
2022/02/16 09:37:37;;;;;;;2.47;1.75;;;8.10;99.90;;;8.16;70.03;99382.28;4991675;28;20253;-70
2022/02/16 09:40:07;;;;;;;2.47;1.50;;;8.00;99.90;;;8.47;70.03;99372.44;4992301;28;20286;-70
2022/02/16 09:42:37;;;;;;;1.23;1.00;;;8.20;99.90;;;8.16;70.02;99371.50;4992031;28;20527;-68
2022/02/16 09:45:09;;;;;;;3.53;1.77;;;8.10;99.90;;;8.01;70.89;99370.19;4992633;28;20197;-70
2022/02/16 09:47:42;;;;;;;2.80;1.90;;;8.00;99.90;;;8.13;72.04;99363.84;4992054;28;20301;-69
2022/02/16 09:50:15;;;;;;;1.23;1.13;;;7.90;99.90;;;8.13;70.81;99357.66;4992596;28;20194;-70
2022/02/16 09:52:44;;;;;;;2.60;1.20;;;7.90;99.90;;;7.90;71.12;99352.06;4991874;28;20278;-70
2022/02/16 09:55:13;;;;;;;2.17;1.27;;;7.90;99.90;;;7.75;72.37;99361.31;4991976;28;20209;-70
2022/02/16 09:57:41;;;;;;;2.30;1.60;;;7.70;99.90;;;7.75;73.04;99349.72;4992253;28;20582;-70
2022/02/16 10:00:15;;;;;;;1.92;1.15;;;7.60;99.90;;;7.75;72.74;99339.78;4985142;28;20187;-71
2022/02/16 10:02:46;;;;;;;1.52;1.42;;;7.60;99.90;;;7.96;72.67;99338.53;4973326;28;20254;-71
2022/02/16 10:05:19;;;;;;;3.58;1.67;;;7.80;99.90;;;7.90;73.63;99331.34;4992100;28;20214;-71
2022/02/16 10:07:50;;;;;;;2.13;1.27;;;7.80;99.90;;;7.71;73.76;99332.38;4994465;28;20257;-71
2022/02/16 10:10:23;;;;;;;2.00;1.52;;;7.70;99.90;;;7.80;73.87;99317.56;4980971;28;20279;-71
2022/02/16 10:12:53;;;;;;;2.65;1.63;;;7.70;99.90;;;7.76;73.45;99319.06;4984313;28;20209;-70
2022/02/16 10:15:26;;;;;;;1.92;1.30;;;7.70;99.90;;;7.67;73.91;99328.47;4995708;28;20213;-70
2022/02/16 10:18:08;;;;;;;2.05;1.65;;;7.60;99.90;;;7.65;74.82;99319.81;4995528;28;20345;-73
2022/02/16 10:20:38;;;;;;;2.40;1.95;;;7.60;99.90;;;7.82;73.99;99318.19;4995193;28;20548;-69
2022/02/16 10:23:06;;;;;;;3.05;1.52;;;7.70;99.90;;;7.79;73.76;99313.25;4995480;28;20198;-69
2022/02/16 10:25:48;;;;;;;3.17;2.28;;;7.70;99.90;;;7.82;74.80;99312.78;4995552;28;20178;-70
2022/02/16 10:28:20;;;;;;;1.95;1.65;;;7.60;99.90;;;7.98;74.34;99290.69;4996324;28;20282;-70
2022/02/16 10:31:00;;;;;;;2.55;1.85;;;7.80;99.90;;;7.82;74.47;99291.25;4979082;28;20203;-70
2022/02/16 10:33:32;;;;;;;3.67;2.00;;;7.70;99.90;;;7.82;74.55;99283.19;4975852;28;20187;-70
2022/02/16 10:36:06;;;;;;;3.10;1.60;;;7.70;99.90;;;7.66;75.46;99271.13;4975271;28;20207;-69
2022/02/16 10:38:57;;;;;;;1.83;1.40;;;7.60;99.90;;;7.88;74.64;99263.44;4983489;28;20202;-70
2022/02/16 10:41:52;;;;;;;4.60;2.10;;;7.70;99.90;;;7.47;75.87;99249.78;4975619;28;20270;-71
2022/02/16 10:44:33;;;;;;;4.13;2.08;;;7.40;99.90;;;7.17;76.68;99253.13;4981741;28;20698;-71
2022/02/16 10:47:06;;;;;;;2.30;1.67;;;7.20;99.90;;;7.02;77.81;99244.56;4981580;28;20238;-68